Time;durP1;ratioP1;P1;durP2;ratioP2;P2;SDS_P1;SDS_P2;PMS_P1;PMS_P2;Temp;Humidity;BMP_temperature;BMP_pressure;BME280_temperature;BME280_humidity;BME280_pressure;Samples;Min_cycle;Max_cycle;Signal;HPM_P1;HPM_P2
2024/01/10 00:00:48;;;;;;;15.65;7.28;;;0.00;64.50;;;;;;6236140;22;20021;-71
2024/01/10 00:03:15;;;;;;;16.75;7.50;;;0.00;64.50;;;;;;6208876;23;20025;-71
2024/01/10 00:05:42;;;;;;;15.50;6.80;;;0.00;64.70;;;;;;6183896;23;20041;-71
2024/01/10 00:08:09;;;;;;;16.97;7.90;;;0.00;64.60;;;;;;6234247;22;20021;-71
2024/01/10 00:10:38;;;;;;;14.25;6.72;;;0.00;64.50;;;;;;6182320;23;21136;-71
2024/01/10 00:13:05;;;;;;;14.75;6.82;;;-0.10;64.60;;;;;;6210106;22;20087;-71
2024/01/10 00:15:32;;;;;;;15.32;6.97;;;-0.10;64.10;;;;;;6209301;23;20029;-71
2024/01/10 00:17:59;;;;;;;14.23;6.80;;;-0.10;64.40;;;;;;6233307;22;20669;-71
2024/01/10 00:20:26;;;;;;;16.43;6.70;;;-0.20;64.50;;;;;;6208173;23;20083;-71
2024/01/10 00:22:53;;;;;;;15.23;7.60;;;-0.20;64.50;;;;;;6186278;23;20410;-71
2024/01/10 00:25:20;;;;;;;15.80;7.22;;;-0.20;64.80;;;;;;6236834;22;20025;-71
2024/01/10 00:27:48;;;;;;;14.57;6.65;;;-0.20;65.00;;;;;;6211204;23;20068;-71
2024/01/10 00:30:16;;;;;;;14.50;6.80;;;-0.20;64.60;;;;;;6235356;22;20025;-71
2024/01/10 00:32:43;;;;;;;14.97;7.13;;;-0.30;64.50;;;;;;6213264;23;20036;-71
2024/01/10 00:35:11;;;;;;;16.95;7.50;;;-0.30;64.50;;;;;;6237072;22;20048;-71
2024/01/10 00:37:38;;;;;;;14.95;7.30;;;-0.30;64.50;;;;;;6213591;23;20025;-71
2024/01/10 00:40:05;;;;;;;14.48;7.20;;;-0.30;64.60;;;;;;6185478;23;20033;-71
2024/01/10 00:42:32;;;;;;;15.50;7.25;;;-0.30;64.60;;;;;;6186185;23;20032;-71
2024/01/10 00:45:01;;;;;;;15.37;6.77;;;-0.30;64.80;;;;;;6233903;22;20040;-71
2024/01/10 00:47:28;;;;;;;15.13;6.70;;;-0.30;64.70;;;;;;6236599;22;20072;-71
2024/01/10 00:49:55;;;;;;;14.18;6.57;;;-0.30;64.70;;;;;;6214212;23;20033;-71
2024/01/10 00:52:22;;;;;;;14.73;6.70;;;-0.30;64.80;;;;;;6184174;23;20108;-71
2024/01/10 00:54:49;;;;;;;15.40;7.18;;;-0.30;65.00;;;;;;6213268;23;20572;-71
2024/01/10 00:57:16;;;;;;;15.10;7.43;;;-0.30;65.00;;;;;;6212980;22;20025;-71
2024/01/10 00:59:43;;;;;;;13.18;7.05;;;-0.30;64.90;;;;;;6184738;23;20123;-71
2024/01/10 01:02:11;;;;;;;13.55;6.65;;;-0.20;65.00;;;;;;6207441;23;20025;-71
2024/01/10 01:04:38;;;;;;;14.38;7.25;;;-0.20;64.90;;;;;;6184995;23;20112;-71
2024/01/10 01:07:05;;;;;;;15.50;7.07;;;-0.20;65.00;;;;;;6235894;22;20055;-71
2024/01/10 01:09:32;;;;;;;14.10;6.53;;;-0.20;64.70;;;;;;6234151;22;20025;-71
2024/01/10 01:11:59;;;;;;;12.60;6.93;;;-0.20;64.50;;;;;;6183880;23;20099;-71
2024/01/10 01:14:26;;;;;;;14.43;6.75;;;-0.30;64.10;;;;;;6211346;23;20025;-71
2024/01/10 01:16:53;;;;;;;14.85;7.00;;;-0.30;64.30;;;;;;6235502;22;20060;-71
2024/01/10 01:19:22;;;;;;;14.30;6.60;;;-0.30;64.40;;;;;;6182131;23;20111;-71
2024/01/10 01:21:49;;;;;;;16.67;7.37;;;-0.30;64.60;;;;;;6213032;22;20017;-71
2024/01/10 01:24:16;;;;;;;14.70;6.70;;;-0.30;64.60;;;;;;6187077;23;20021;-71
2024/01/10 01:26:43;;;;;;;14.80;7.00;;;-0.30;64.70;;;;;;6237438;22;20096;-71
2024/01/10 01:29:10;;;;;;;14.38;6.93;;;-0.30;64.60;;;;;;6185979;23;20025;-71
2024/01/10 01:31:38;;;;;;;13.38;6.40;;;-0.30;64.50;;;;;;6236120;22;20056;-71
2024/01/10 01:34:05;;;;;;;14.57;6.70;;;-0.30;64.40;;;;;;6186395;23;20079;-71
2024/01/10 01:36:34;;;;;;;14.57;6.68;;;-0.30;64.30;;;;;;6234201;22;20020;-71
2024/01/10 01:39:01;;;;;;;11.88;6.40;;;-0.30;64.30;;;;;;6186699;23;20029;-71
2024/01/10 01:41:27;;;;;;;14.50;6.78;;;-0.30;64.10;;;;;;6210575;23;20104;-71
2024/01/10 01:43:55;;;;;;;14.77;6.85;;;-0.30;64.10;;;;;;6209779;23;20029;-71
2024/01/10 01:46:22;;;;;;;14.70;6.60;;;-0.40;63.90;;;;;;6184849;23;20021;-71
2024/01/10 01:48:50;;;;;;;15.75;7.28;;;-0.40;63.90;;;;;;6209219;23;20033;-71
2024/01/10 01:51:21;;;;;;;12.30;6.07;;;-0.40;64.10;;;;;;6183297;23;20075;-71
2024/01/10 01:53:50;;;;;;;15.63;6.90;;;-0.50;64.20;;;;;;6230740;22;20024;-70
2024/01/10 01:56:17;;;;;;;13.95;7.13;;;-0.50;64.00;;;;;;6211446;23;20037;-72
2024/01/10 01:58:46;;;;;;;14.83;6.93;;;-0.50;64.30;;;;;;6211998;23;20033;-70
2024/01/10 02:01:13;;;;;;;14.27;6.75;;;-0.50;64.30;;;;;;6231504;22;20577;-72
2024/01/10 02:03:40;;;;;;;15.75;6.70;;;-0.50;64.10;;;;;;6176961;23;20049;-70
2024/01/10 02:06:08;;;;;;;15.13;6.93;;;-0.50;64.10;;;;;;6180112;23;20056;-70
2024/01/10 02:08:35;;;;;;;13.90;6.47;;;-0.50;63.90;;;;;;6206491;23;20029;-71
2024/01/10 02:11:04;;;;;;;14.50;6.57;;;-0.60;63.70;;;;;;6227845;22;20518;-70
2024/01/10 02:13:33;;;;;;;15.68;6.85;;;-0.60;63.60;;;;;;6229616;22;20120;-70
2024/01/10 02:16:00;;;;;;;13.82;6.53;;;-0.60;63.70;;;;;;6205802;23;20083;-71
2024/01/10 02:18:27;;;;;;;12.93;6.28;;;-0.70;63.60;;;;;;6179208;23;20032;-72
2024/01/10 02:20:54;;;;;;;12.57;6.28;;;-0.70;63.30;;;;;;6229468;22;20025;-71
2024/01/10 02:23:21;;;;;;;13.70;6.10;;;-0.80;63.40;;;;;;6207260;23;20128;-71
2024/01/10 02:25:50;;;;;;;13.90;6.47;;;-0.90;63.70;;;;;;6207150;23;20033;-71
2024/01/10 02:28:17;;;;;;;15.10;6.63;;;-0.90;63.70;;;;;;6207432;23;20037;-70
2024/01/10 02:30:44;;;;;;;13.77;6.30;;;-0.90;63.90;;;;;;6181722;23;20557;-71
2024/01/10 02:33:11;;;;;;;14.38;7.18;;;-0.90;64.10;;;;;;6208258;23;20032;-71
2024/01/10 02:35:38;;;;;;;11.27;5.70;;;-0.90;64.10;;;;;;6233390;22;20021;-71
2024/01/10 02:38:05;;;;;;;14.95;6.93;;;-0.90;64.10;;;;;;6207501;23;20105;-71
2024/01/10 02:40:32;;;;;;;10.90;5.70;;;-0.90;64.10;;;;;;6181629;23;20025;-70
2024/01/10 02:43:00;;;;;;;12.35;5.68;;;-0.90;64.00;;;;;;6233643;22;20032;-69
2024/01/10 02:45:27;;;;;;;12.70;5.72;;;-0.90;64.00;;;;;;6207521;23;20029;-70
2024/01/10 02:47:54;;;;;;;12.90;5.57;;;-0.90;63.90;;;;;;6207701;23;20025;-71
2024/01/10 02:50:21;;;;;;;14.13;5.65;;;-0.90;63.90;;;;;;6232090;22;20021;-69
2024/01/10 02:52:48;;;;;;;11.32;5.72;;;-0.90;63.90;;;;;;6182026;23;20079;-71
2024/01/10 02:55:16;;;;;;;11.95;5.68;;;-0.90;63.70;;;;;;6233891;22;20021;-69
2024/01/10 02:57:44;;;;;;;11.57;5.63;;;-0.90;63.70;;;;;;6183998;23;20028;-69
2024/01/10 03:00:14;;;;;;;13.67;5.90;;;-0.90;63.70;;;;;;6183742;23;20657;-69
2024/01/10 03:02:42;;;;;;;13.73;5.90;;;-1.00;63.70;;;;;;6210033;23;20031;-69
2024/01/10 03:05:09;;;;;;;11.52;5.97;;;-0.90;64.10;;;;;;6210006;22;20967;-70
2024/01/10 03:07:36;;;;;;;15.27;6.57;;;-0.90;64.10;;;;;;6184073;23;20323;-72
2024/01/10 03:10:05;;;;;;;13.77;6.10;;;-1.00;64.10;;;;;;6184519;23;20365;-72
2024/01/10 03:12:36;;;;;;;11.60;5.87;;;-1.00;63.90;;;;;;6183767;23;20521;-69
2024/01/10 03:15:04;;;;;;;17.15;6.60;;;-1.00;63.90;;;;;;6185080;23;20031;-71
2024/01/10 03:17:35;;;;;;;13.52;6.07;;;-1.00;64.40;;;;;;6185374;23;20207;-70
2024/01/10 03:20:03;;;;;;;16.55;6.28;;;-1.00;64.70;;;;;;6184778;23;20021;-70
2024/01/10 03:22:31;;;;;;;13.90;7.03;;;-1.00;64.30;;;;;;6234458;22;20029;-70
2024/01/10 03:24:59;;;;;;;13.53;6.20;;;-1.00;64.50;;;;;;6184149;23;20027;-68
2024/01/10 03:27:26;;;;;;;14.15;7.50;;;-0.90;64.80;;;;;;6211396;23;20124;-69
2024/01/10 03:29:54;;;;;;;16.33;7.47;;;-0.90;64.70;;;;;;6208952;23;20021;-72
2024/01/10 03:32:22;;;;;;;14.63;7.15;;;-0.90;64.50;;;;;;6183952;23;20088;-72
2024/01/10 03:34:52;;;;;;;14.82;7.40;;;-0.90;64.30;;;;;;6184196;23;20096;-69
2024/01/10 03:37:20;;;;;;;16.33;7.50;;;-0.90;64.30;;;;;;6183254;23;20036;-72
2024/01/10 03:39:47;;;;;;;15.63;7.32;;;-1.00;64.40;;;;;;6234729;22;20025;-70
2024/01/10 03:42:16;;;;;;;14.90;7.10;;;-1.00;64.30;;;;;;6183198;23;20029;-72
2024/01/10 03:44:43;;;;;;;16.30;7.70;;;-1.00;64.40;;;;;;6210656;22;20020;-71
2024/01/10 03:47:11;;;;;;;16.60;7.68;;;-1.00;64.30;;;;;;6209808;22;20021;-69
2024/01/10 03:49:38;;;;;;;17.53;7.90;;;-1.00;64.40;;;;;;6209779;23;20032;-71
2024/01/10 03:52:08;;;;;;;17.60;8.23;;;-1.10;64.70;;;;;;6183357;23;20029;-69
2024/01/10 03:54:36;;;;;;;17.73;8.07;;;-1.00;64.70;;;;;;6183055;23;20370;-69
2024/01/10 03:57:04;;;;;;;18.40;7.93;;;-1.00;64.90;;;;;;6208419;23;20044;-70
2024/01/10 03:59:32;;;;;;;15.70;7.68;;;-1.00;64.80;;;;;;6183479;23;20084;-68
2024/01/10 04:02:01;;;;;;;16.33;7.60;;;-1.10;64.70;;;;;;6209355;23;20076;-74
2024/01/10 04:04:29;;;;;;;18.08;8.50;;;-1.00;64.70;;;;;;6234266;22;20402;-68
2024/01/10 04:06:57;;;;;;;15.88;8.40;;;-1.00;64.90;;;;;;6209278;23;20017;-71
2024/01/10 04:09:26;;;;;;;17.50;8.25;;;-1.00;64.70;;;;;;6233962;22;20028;-72
2024/01/10 04:11:53;;;;;;;16.95;8.02;;;-1.10;64.90;;;;;;6183811;23;20646;-68
2024/01/10 04:14:21;;;;;;;17.13;8.23;;;-1.00;65.00;;;;;;6183760;23;20056;-71
2024/01/10 04:16:48;;;;;;;17.58;7.82;;;-1.00;65.00;;;;;;6208719;23;20040;-69
2024/01/10 04:19:16;;;;;;;15.40;8.30;;;-1.00;64.80;;;;;;6209710;23;20013;-72
2024/01/10 04:21:43;;;;;;;17.13;8.00;;;-1.00;65.00;;;;;;6183850;23;20029;-69
2024/01/10 04:24:11;;;;;;;18.67;8.30;;;-1.00;64.90;;;;;;6183467;23;20021;-73
2024/01/10 04:26:39;;;;;;;17.30;8.00;;;-1.00;64.80;;;;;;6183679;23;20686;-70
2024/01/10 04:29:07;;;;;;;17.60;8.32;;;-1.00;64.80;;;;;;6234153;22;20043;-71
2024/01/10 04:31:35;;;;;;;21.50;9.05;;;-1.00;64.90;;;;;;6182668;23;20021;-69
2024/01/10 04:34:03;;;;;;;17.50;8.23;;;-1.00;65.00;;;;;;6183886;23;20032;-70
2024/01/10 04:36:31;;;;;;;19.10;8.35;;;-1.00;65.00;;;;;;6182981;23;20180;-69
2024/01/10 04:38:58;;;;;;;17.97;8.47;;;-1.00;65.20;;;;;;6207813;23;20025;-69
2024/01/10 04:41:26;;;;;;;16.70;8.25;;;-1.00;65.00;;;;;;6182834;23;20552;-71
2024/01/10 04:43:55;;;;;;;17.33;8.13;;;-1.00;65.00;;;;;;6209413;23;20032;-70
2024/01/10 04:46:22;;;;;;;17.55;8.48;;;-1.00;65.00;;;;;;6233718;22;20623;-69
2024/01/10 04:48:50;;;;;;;19.48;8.68;;;-1.00;65.00;;;;;;6208704;23;20025;-73
2024/01/10 04:51:17;;;;;;;17.63;8.10;;;-1.00;64.90;;;;;;6208848;23;20024;-72
2024/01/10 04:53:45;;;;;;;18.23;8.40;;;-1.00;64.70;;;;;;6234990;22;20024;-70
2024/01/10 04:56:12;;;;;;;16.75;8.45;;;-1.10;64.50;;;;;;6183056;23;20033;-71
2024/01/10 04:58:40;;;;;;;16.98;8.27;;;-1.10;64.70;;;;;;6184204;23;20080;-70
2024/01/10 05:01:10;;;;;;;19.55;8.50;;;-1.10;64.70;;;;;;6209891;23;20025;-73
2024/01/10 05:03:37;;;;;;;19.57;8.63;;;-1.10;64.70;;;;;;6210560;23;20029;-69
2024/01/10 05:06:06;;;;;;;17.42;8.32;;;-1.20;64.70;;;;;;6185009;23;20615;-74
2024/01/10 05:08:33;;;;;;;20.95;8.70;;;-1.20;64.70;;;;;;6185712;23;20092;-70
2024/01/10 05:11:01;;;;;;;18.45;8.80;;;-1.20;65.00;;;;;;6185114;23;20489;-69
2024/01/10 05:13:29;;;;;;;21.50;8.70;;;-1.20;64.90;;;;;;6210771;23;20026;-69
2024/01/10 05:15:57;;;;;;;19.97;9.23;;;-1.20;65.00;;;;;;6186435;23;20039;-70
2024/01/10 05:18:26;;;;;;;17.73;9.05;;;-1.20;64.80;;;;;;6210657;23;20225;-71
2024/01/10 05:20:57;;;;;;;18.08;8.80;;;-1.30;65.00;;;;;;6211480;23;20063;-68
2024/01/10 05:23:24;;;;;;;19.60;9.07;;;-1.20;65.10;;;;;;6210824;23;20076;-71
2024/01/10 05:25:52;;;;;;;20.13;9.43;;;-1.20;65.10;;;;;;6211163;23;20479;-71
2024/01/10 05:28:19;;;;;;;21.50;9.07;;;-1.30;65.20;;;;;;6186067;23;20033;-71
2024/01/10 05:30:47;;;;;;;18.00;9.13;;;-1.30;65.10;;;;;;6209951;23;20427;-71
2024/01/10 05:33:14;;;;;;;19.98;9.05;;;-1.30;65.20;;;;;;6185036;23;20466;-70
2024/01/10 05:35:43;;;;;;;19.77;9.23;;;-1.30;65.20;;;;;;6212294;22;20029;-70
2024/01/10 05:38:11;;;;;;;20.48;8.65;;;-1.30;65.20;;;;;;6184895;23;20021;-71
2024/01/10 05:40:38;;;;;;;19.37;9.10;;;-1.30;65.30;;;;;;6211327;23;20036;-69
2024/01/10 05:43:06;;;;;;;20.88;9.20;;;-1.30;65.70;;;;;;6184963;23;20029;-69
2024/01/10 05:45:34;;;;;;;19.92;9.30;;;-1.30;65.80;;;;;;6184302;23;20040;-71
2024/01/10 05:48:02;;;;;;;20.95;8.85;;;-1.30;66.10;;;;;;6210003;23;20021;-69
2024/01/10 05:50:30;;;;;;;18.70;9.55;;;-1.20;66.00;;;;;;6234913;22;20021;-70
2024/01/10 05:52:58;;;;;;;17.97;8.60;;;-1.10;66.00;;;;;;6213099;23;20020;-69
2024/01/10 05:55:26;;;;;;;18.08;8.30;;;-1.10;65.90;;;;;;6184392;23;20116;-71
2024/01/10 05:57:53;;;;;;;18.10;8.95;;;-1.20;65.90;;;;;;6184469;23;20021;-70
2024/01/10 06:00:21;;;;;;;21.58;9.20;;;-1.20;65.70;;;;;;6183341;23;20028;-69
2024/01/10 06:02:48;;;;;;;19.95;9.77;;;-1.30;65.80;;;;;;6211195;22;20096;-70
2024/01/10 06:05:16;;;;;;;19.47;8.87;;;-1.30;65.80;;;;;;6184481;23;20331;-71
2024/01/10 06:07:43;;;;;;;19.98;9.40;;;-1.30;66.00;;;;;;6185085;23;20036;-69
2024/01/10 06:10:12;;;;;;;18.48;9.32;;;-1.30;66.10;;;;;;6183535;23;20021;-68
2024/01/10 06:12:40;;;;;;;18.67;8.98;;;-1.30;66.10;;;;;;6210547;23;20533;-69
2024/01/10 06:15:08;;;;;;;19.58;9.45;;;-1.20;66.20;;;;;;6208185;23;20845;-71
2024/01/10 06:17:36;;;;;;;18.97;8.80;;;-1.20;66.20;;;;;;6183696;23;20027;-68
2024/01/10 06:20:04;;;;;;;19.23;8.75;;;-1.20;66.30;;;;;;6230753;22;20174;-68
2024/01/10 06:22:31;;;;;;;17.42;9.07;;;-1.20;66.10;;;;;;6180130;23;20100;-71
2024/01/10 06:24:59;;;;;;;19.40;9.05;;;-1.20;65.70;;;;;;6207413;22;20739;-71
2024/01/10 06:27:27;;;;;;;21.33;9.85;;;-1.30;66.10;;;;;;6205880;23;20051;-71
2024/01/10 06:29:55;;;;;;;16.97;9.03;;;-1.30;66.20;;;;;;6205589;23;20440;-73
2024/01/10 06:32:23;;;;;;;24.77;9.32;;;-1.30;66.20;;;;;;6207553;23;20083;-69
2024/01/10 06:34:51;;;;;;;20.88;9.40;;;-1.30;66.00;;;;;;6183727;23;20040;-71
2024/01/10 06:37:18;;;;;;;18.30;8.63;;;-1.30;66.20;;;;;;6234418;22;20045;-71
2024/01/10 06:39:46;;;;;;;19.23;9.23;;;-1.30;66.00;;;;;;6183816;23;20501;-69
2024/01/10 06:42:13;;;;;;;22.03;9.73;;;-1.30;65.90;;;;;;6208825;23;20020;-70
2024/01/10 06:44:42;;;;;;;21.38;9.30;;;-1.30;66.00;;;;;;6181696;23;20065;-72
2024/01/10 06:47:10;;;;;;;17.23;8.57;;;-1.30;66.10;;;;;;6182969;23;20033;-73
2024/01/10 06:49:38;;;;;;;17.15;8.80;;;-1.30;66.20;;;;;;6208227;23;20029;-70
2024/01/10 06:52:07;;;;;;;20.48;9.20;;;-1.30;66.00;;;;;;6207879;23;20324;-69
2024/01/10 06:54:35;;;;;;;16.00;9.17;;;-1.30;65.90;;;;;;6183323;23;20256;-69
2024/01/10 06:57:02;;;;;;;18.13;8.30;;;-1.30;66.00;;;;;;6181628;23;20049;-69
2024/01/10 06:59:30;;;;;;;18.33;9.38;;;-1.30;66.10;;;;;;6233626;22;20049;-70
2024/01/10 07:02:01;;;;;;;18.67;9.30;;;-1.30;66.00;;;;;;6181714;23;20024;-72
2024/01/10 07:04:28;;;;;;;17.15;8.50;;;-1.30;65.80;;;;;;6211853;23;20104;-70
2024/01/10 07:06:55;;;;;;;20.07;9.10;;;-1.30;65.80;;;;;;6237087;22;20021;-69
2024/01/10 07:09:22;;;;;;;17.20;8.80;;;-1.30;65.80;;;;;;6182554;23;20025;-69
2024/01/10 07:11:49;;;;;;;20.65;8.82;;;-1.30;65.70;;;;;;6180993;23;20300;-70
2024/01/10 07:14:17;;;;;;;18.58;9.30;;;-1.30;65.70;;;;;;6206594;23;20054;-70
2024/01/10 07:16:45;;;;;;;20.77;9.30;;;-1.30;65.50;;;;;;6209923;23;20082;-70
2024/01/10 07:19:14;;;;;;;17.67;8.57;;;-1.40;65.50;;;;;;6180828;23;20025;-70
2024/01/10 07:21:41;;;;;;;17.83;8.73;;;-1.40;65.70;;;;;;6231563;22;20462;-69
2024/01/10 07:24:09;;;;;;;18.08;8.88;;;-1.50;65.60;;;;;;6209569;23;20037;-69
2024/01/10 07:26:37;;;;;;;17.42;8.32;;;-1.50;65.70;;;;;;6207291;23;20579;-70
2024/01/10 07:29:08;;;;;;;19.17;9.18;;;-1.50;65.80;;;;;;6181538;23;20025;-70
2024/01/10 07:31:35;;;;;;;18.50;8.90;;;-1.50;65.60;;;;;;6181094;23;20474;-71
2024/01/10 07:34:04;;;;;;;16.15;8.70;;;-1.50;65.40;;;;;;6208563;23;20115;-70
2024/01/10 07:36:34;;;;;;;20.92;8.70;;;-1.50;65.60;;;;;;6231497;22;20025;-70
2024/01/10 07:39:01;;;;;;;17.77;8.85;;;-1.50;65.70;;;;;;6232630;22;20025;-71
2024/01/10 07:41:28;;;;;;;15.50;7.82;;;-1.50;65.50;;;;;;6230663;22;20025;-72
2024/01/10 07:43:55;;;;;;;16.80;8.87;;;-1.60;65.50;;;;;;6206030;23;20037;-72
2024/01/10 07:46:22;;;;;;;18.73;8.07;;;-1.60;65.70;;;;;;6206305;22;20115;-72
2024/01/10 07:48:50;;;;;;;19.05;8.52;;;-1.60;65.80;;;;;;6178684;23;20556;-71
2024/01/10 07:51:17;;;;;;;18.88;8.48;;;-1.60;65.80;;;;;;6229290;22;20119;-71
2024/01/10 07:53:45;;;;;;;27.17;9.05;;;-1.60;65.80;;;;;;6209327;23;20024;-70
2024/01/10 07:56:13;;;;;;;20.53;8.63;;;-1.60;65.80;;;;;;6182914;23;20478;-70
2024/01/10 07:58:40;;;;;;;20.48;8.27;;;-1.60;65.80;;;;;;6184112;23;20362;-71
2024/01/10 08:01:10;;;;;;;19.15;9.32;;;-1.60;65.70;;;;;;6233289;22;20024;-70
2024/01/10 08:03:37;;;;;;;20.05;9.23;;;-1.60;65.70;;;;;;6183155;23;20032;-70
2024/01/10 08:06:05;;;;;;;15.98;8.68;;;-1.60;65.70;;;;;;6183861;23;20472;-70
2024/01/10 08:08:33;;;;;;;18.27;9.47;;;-1.60;65.60;;;;;;6206396;23;20029;-70
2024/01/10 08:11:01;;;;;;;15.38;8.23;;;-1.60;65.60;;;;;;6205020;23;20092;-70
2024/01/10 08:13:28;;;;;;;18.05;8.55;;;-1.70;65.60;;;;;;6207013;23;20115;-70
2024/01/10 08:15:55;;;;;;;16.30;7.85;;;-1.60;65.70;;;;;;6231654;22;20023;-70
2024/01/10 08:18:22;;;;;;;17.70;8.82;;;-1.70;65.80;;;;;;6208099;23;20103;-70
2024/01/10 08:20:49;;;;;;;18.47;8.10;;;-1.70;65.90;;;;;;6233116;22;20020;-70
2024/01/10 08:23:16;;;;;;;18.63;8.77;;;-1.70;65.60;;;;;;6206797;23;20443;-70
2024/01/10 08:25:44;;;;;;;18.38;8.68;;;-1.70;65.60;;;;;;6232530;22;20079;-70
2024/01/10 08:28:13;;;;;;;16.58;8.30;;;-1.80;65.80;;;;;;6207657;23;20045;-70
2024/01/10 08:30:40;;;;;;;17.88;8.15;;;-1.80;66.00;;;;;;6234529;22;20103;-70
2024/01/10 08:33:07;;;;;;;20.33;8.53;;;-1.80;66.00;;;;;;6235619;22;20449;-70
2024/01/10 08:35:34;;;;;;;19.30;9.38;;;-1.80;66.00;;;;;;6182645;23;20859;-71
2024/01/10 08:38:04;;;;;;;16.65;8.63;;;-1.80;66.10;;;;;;6231309;22;20025;-70
2024/01/10 08:40:31;;;;;;;16.75;7.55;;;-1.80;66.20;;;;;;6207738;23;20088;-71
2024/01/10 08:42:58;;;;;;;18.20;8.50;;;-1.80;66.20;;;;;;6232368;22;20037;-71
2024/01/10 08:45:26;;;;;;;17.20;8.33;;;-1.80;66.10;;;;;;6231835;22;20096;-71
2024/01/10 08:47:55;;;;;;;17.48;8.85;;;-1.80;66.40;;;;;;6232206;22;20025;-70
2024/01/10 08:50:22;;;;;;;20.05;8.93;;;-1.90;66.40;;;;;;6209814;23;20021;-69
2024/01/10 08:52:49;;;;;;;16.95;8.32;;;-1.90;66.30;;;;;;6210431;23;20029;-70
2024/01/10 08:55:16;;;;;;;18.23;8.77;;;-1.90;66.30;;;;;;6211453;23;20017;-69
2024/01/10 08:57:43;;;;;;;18.17;8.67;;;-1.90;66.60;;;;;;6235085;22;20544;-71
2024/01/10 09:00:12;;;;;;;16.88;8.57;;;-2.00;66.50;;;;;;6210070;23;20494;-70
2024/01/10 09:02:40;;;;;;;18.52;8.88;;;-2.10;66.50;;;;;;6233411;22;20025;-71
2024/01/10 09:05:09;;;;;;;17.92;8.80;;;-2.10;66.80;;;;;;6210798;23;20769;-70
2024/01/10 09:07:37;;;;;;;19.35;9.57;;;-2.10;66.90;;;;;;6233688;22;20100;-71
2024/01/10 09:10:05;;;;;;;17.17;8.47;;;-2.10;67.00;;;;;;6231055;22;20052;-70
2024/01/10 09:12:32;;;;;;;16.92;8.90;;;-2.10;67.00;;;;;;6181868;23;20060;-70
2024/01/10 09:15:00;;;;;;;19.08;8.63;;;-2.10;67.00;;;;;;6182116;23;20029;-71
2024/01/10 09:17:27;;;;;;;18.98;8.68;;;-2.10;67.00;;;;;;6210418;23;20506;-71
2024/01/10 09:19:56;;;;;;;17.52;9.02;;;-2.00;67.40;;;;;;6207837;23;20482;-70
2024/01/10 09:22:23;;;;;;;18.77;8.33;;;-2.00;67.30;;;;;;6232621;22;20091;-69
2024/01/10 09:24:50;;;;;;;16.15;7.47;;;-2.00;67.50;;;;;;6212444;23;20025;-70
2024/01/10 09:27:16;;;;;;;16.58;8.00;;;-2.00;68.10;;;;;;6235496;22;20021;-70
2024/01/10 09:29:43;;;;;;;17.20;7.00;;;-1.90;68.80;;;;;;6235989;22;20021;-69
2024/01/10 09:32:11;;;;;;;18.30;8.02;;;-1.90;68.60;;;;;;6212221;23;20124;-70
2024/01/10 09:34:37;;;;;;;19.47;8.40;;;-1.80;68.70;;;;;;6211903;23;20100;-71
2024/01/10 09:37:06;;;;;;;17.98;7.57;;;-1.80;68.70;;;;;;6182793;23;20052;-71
2024/01/10 09:39:33;;;;;;;19.73;8.93;;;-1.70;68.60;;;;;;6233804;22;20029;-70
2024/01/10 09:42:01;;;;;;;18.60;8.10;;;-1.70;68.00;;;;;;6233293;22;20021;-71
2024/01/10 09:44:29;;;;;;;18.95;8.25;;;-1.70;68.30;;;;;;6210127;23;20023;-70
2024/01/10 09:46:56;;;;;;;18.27;7.73;;;-1.70;68.10;;;;;;6211279;23;20104;-71
2024/01/10 09:49:24;;;;;;;19.05;7.55;;;-1.70;67.90;;;;;;6210851;23;20025;-70
2024/01/10 09:51:54;;;;;;;18.23;7.88;;;-1.70;67.70;;;;;;6182796;23;20089;-69
2024/01/10 09:54:26;;;;;;;17.50;7.55;;;-1.70;67.50;;;;;;6183068;23;20092;-70
2024/01/10 09:56:55;;;;;;;16.80;6.90;;;-1.70;67.40;;;;;;6234241;22;20103;-70
2024/01/10 09:59:22;;;;;;;17.03;6.97;;;-1.70;67.60;;;;;;6209572;23;20055;-71
2024/01/10 10:01:49;;;;;;;19.10;7.00;;;-1.70;67.80;;;;;;6209684;23;20627;-70
2024/01/10 10:04:18;;;;;;;17.05;7.85;;;-1.70;67.90;;;;;;6183031;23;20033;-72
2024/01/10 10:06:45;;;;;;;17.63;7.43;;;-1.60;67.70;;;;;;6183106;23;20079;-71
2024/01/10 10:09:13;;;;;;;17.60;7.28;;;-1.60;67.70;;;;;;6233557;22;20476;-69
2024/01/10 10:11:42;;;;;;;17.60;7.40;;;-1.60;67.60;;;;;;6209404;23;20055;-71
2024/01/10 10:14:16;;;;;;;17.58;7.57;;;-1.60;67.70;;;;;;6233685;22;20021;-71
2024/01/10 10:16:43;;;;;;;17.95;6.95;;;-1.60;67.60;;;;;;6210529;23;20052;-71
2024/01/10 10:19:11;;;;;;;20.13;7.85;;;-1.50;68.30;;;;;;6209887;23;20290;-71
2024/01/10 10:21:38;;;;;;;17.27;7.60;;;-1.50;68.70;;;;;;6183032;23;20434;-71
2024/01/10 10:24:07;;;;;;;22.37;7.73;;;-1.30;68.50;;;;;;6233576;22;20040;-71
2024/01/10 10:26:34;;;;;;;17.27;6.82;;;-1.30;68.30;;;;;;6183022;23;20034;-70
2024/01/10 10:29:03;;;;;;;16.67;7.30;;;-1.20;67.70;;;;;;6233571;22;20028;-71
2024/01/10 10:31:32;;;;;;;15.73;6.90;;;-1.20;67.70;;;;;;6183324;23;20029;-70
2024/01/10 10:34:02;;;;;;;18.15;7.00;;;-1.10;67.50;;;;;;6209565;23;20104;-70
2024/01/10 10:36:31;;;;;;;17.97;6.63;;;-1.10;67.40;;;;;;6183804;23;20043;-71
2024/01/10 10:39:02;;;;;;;16.67;7.05;;;-1.00;68.60;;;;;;6233551;22;20025;-71
2024/01/10 10:41:31;;;;;;;15.93;6.45;;;-0.90;68.30;;;;;;6210528;23;20052;-70
2024/01/10 10:43:59;;;;;;;20.98;6.93;;;-0.90;68.00;;;;;;6210878;23;20069;-70
2024/01/10 10:46:31;;;;;;;15.07;6.20;;;-0.80;67.50;;;;;;6183355;23;20136;-70
2024/01/10 10:49:04;;;;;;;16.90;6.77;;;-0.70;67.30;;;;;;6209008;23;20029;-72
2024/01/10 10:51:34;;;;;;;17.63;6.80;;;-0.70;66.80;;;;;;6210622;23;20161;-71
2024/01/10 10:54:01;;;;;;;18.95;7.38;;;-0.70;66.60;;;;;;6233187;22;20490;-70
2024/01/10 10:56:32;;;;;;;19.73;7.93;;;-0.70;66.60;;;;;;6233252;22;20021;-70
2024/01/10 10:59:01;;;;;;;16.23;6.93;;;-0.60;66.50;;;;;;6234186;22;20855;-71
2024/01/10 11:01:30;;;;;;;14.13;5.70;;;-0.60;67.10;;;;;;6182659;23;20088;-70
2024/01/10 11:03:58;;;;;;;20.73;7.80;;;-0.50;67.20;;;;;;6233558;22;20025;-70
2024/01/10 11:06:25;;;;;;;17.23;6.50;;;-0.40;67.60;;;;;;6210452;23;20088;-71
2024/01/10 11:08:57;;;;;;;15.70;6.20;;;-0.30;67.20;;;;;;6234131;22;20108;-71
2024/01/10 11:11:43;;;;;;;15.27;6.43;;;-0.20;66.60;;;;;;6233454;22;20493;-71
2024/01/10 11:14:21;;;;;;;15.27;6.80;;;-0.20;66.60;;;;;;6208353;23;20024;-71
2024/01/10 11:17:14;;;;;;;15.13;5.95;;;-0.10;67.50;;;;;;6233699;22;20087;-72
2024/01/10 11:20:14;;;;;;;15.95;5.68;;;-0.10;67.30;;;;;;6185027;23;20434;-70
2024/01/10 11:23:09;;;;;;;15.27;5.75;;;0.00;66.20;;;;;;6143102;23;20036;-71
2024/01/10 11:25:36;;;;;;;15.18;6.10;;;0.00;66.20;;;;;;6210823;22;20079;-70
2024/01/10 11:28:05;;;;;;;18.87;6.77;;;0.00;66.30;;;;;;6208867;23;20161;-71
2024/01/10 11:30:35;;;;;;;16.70;5.72;;;0.20;66.00;;;;;;6233021;22;20021;-71
2024/01/10 11:33:19;;;;;;;13.68;5.97;;;0.20;65.90;;;;;;6183531;23;20938;-70
2024/01/10 11:36:13;;;;;;;13.73;5.07;;;0.30;65.30;;;;;;6233515;22;20535;-71
2024/01/10 11:38:48;;;;;;;16.17;5.80;;;0.40;65.20;;;;;;6209131;23;20471;-72
2024/01/10 11:41:22;;;;;;;16.27;5.73;;;0.40;65.00;;;;;;6182321;23;20025;-73
2024/01/10 11:44:23;;;;;;;15.25;5.18;;;0.50;65.00;;;;;;6183380;23;20036;-71
2024/01/10 11:46:53;;;;;;;16.90;5.90;;;0.60;65.30;;;;;;6208187;23;20079;-71
2024/01/10 11:49:23;;;;;;;12.65;4.35;;;0.60;65.10;;;;;;6233195;22;20021;-72
2024/01/10 11:51:51;;;;;;;14.20;5.25;;;0.70;64.60;;;;;;6209847;22;20027;-73
2024/01/10 11:54:36;;;;;;;15.00;5.20;;;0.80;63.70;;;;;;6182514;23;20033;-71
2024/01/10 11:57:08;;;;;;;14.70;5.10;;;0.80;63.40;;;;;;6232607;22;20029;-72
2024/01/10 11:59:36;;;;;;;14.15;5.18;;;0.80;65.00;;;;;;6232527;22;20021;-70
2024/01/10 12:02:03;;;;;;;15.68;5.43;;;1.00;63.90;;;;;;6232274;22;20057;-70
2024/01/10 12:04:33;;;;;;;12.80;5.05;;;1.00;64.00;;;;;;6182572;23;20466;-72
2024/01/10 12:07:00;;;;;;;12.40;5.40;;;1.10;63.00;;;;;;6180891;23;20060;-73
2024/01/10 12:09:27;;;;;;;15.38;6.00;;;1.10;63.50;;;;;;6232736;22;20132;-71
2024/01/10 12:11:54;;;;;;;12.18;4.53;;;1.20;63.50;;;;;;6232854;22;20021;-71
2024/01/10 12:14:21;;;;;;;13.30;5.00;;;1.20;63.10;;;;;;6208459;23;20028;-70
2024/01/10 12:16:48;;;;;;;11.32;4.45;;;1.30;63.30;;;;;;6232460;22;20025;-71
2024/01/10 12:19:15;;;;;;;12.60;4.40;;;1.40;63.50;;;;;;6206798;23;20029;-72
2024/01/10 12:21:44;;;;;;;11.75;4.55;;;1.50;63.00;;;;;;6231490;22;20090;-73
2024/01/10 12:24:11;;;;;;;13.23;5.00;;;1.50;63.20;;;;;;6212994;22;20029;-71
2024/01/10 12:26:44;;;;;;;12.70;4.72;;;1.60;62.60;;;;;;6235643;22;20025;-72
2024/01/10 12:29:12;;;;;;;12.15;4.57;;;1.70;62.90;;;;;;6210133;23;20029;-72
2024/01/10 12:31:39;;;;;;;13.07;4.37;;;1.70;61.40;;;;;;6229637;22;20021;-73
2024/01/10 12:34:09;;;;;;;13.27;5.47;;;1.80;62.30;;;;;;6177884;23;20044;-72
2024/01/10 12:36:36;;;;;;;12.65;4.63;;;1.90;63.00;;;;;;6229231;22;20088;-72
2024/01/10 12:39:06;;;;;;;12.38;4.55;;;2.00;61.80;;;;;;6230538;22;20045;-73
2024/01/10 12:41:35;;;;;;;18.10;5.28;;;2.00;61.30;;;;;;6205663;22;20079;-71
2024/01/10 12:44:04;;;;;;;11.50;4.27;;;2.10;61.30;;;;;;6228902;22;20035;-74